sensor_id;sensor_type;location;lat;lon;timestamp;pressure;altitude;pressure_sealevel;temperature;humidity
10145;BME280;5113;41.822;23.564;2023-01-04T00:01:24;-10927.31;;;-0.26;100.00
10145;BME280;5113;41.822;23.564;2023-01-04T00:04:30;-10926.19;;;-0.30;100.00
10145;BME280;5113;41.822;23.564;2023-01-04T00:07:38;-10925.34;;;-0.33;100.00
10145;BME280;5113;41.822;23.564;2023-01-04T00:10:44;-10923.53;;;-0.40;100.00
10145;BME280;5113;41.822;23.564;2023-01-04T00:13:52;-10926.19;;;-0.30;100.00
10145;BME280;5113;41.822;23.564;2023-01-04T00:17:00;-10928.72;;;-0.21;100.00
10145;BME280;5113;41.822;23.564;2023-01-04T00:20:08;-10924.22;;;-0.37;100.00
10145;BME280;5113;41.822;23.564;2023-01-04T00:23:15;-10918.06;;;-0.59;100.00
10145;BME280;5113;41.822;23.564;2023-01-04T00:26:24;-10919.06;;;-0.56;100.00
10145;BME280;5113;41.822;23.564;2023-01-04T00:29:31;-10929.56;;;-0.18;100.00
10145;BME280;5113;41.822;23.564;2023-01-04T00:32:38;-10926.75;;;-0.28;100.00
10145;BME280;5113;41.822;23.564;2023-01-04T00:35:44;-10920.31;;;-0.51;100.00
10145;BME280;5113;41.822;23.564;2023-01-04T00:38:52;-10920.72;;;-0.50;100.00
10145;BME280;5113;41.822;23.564;2023-01-04T00:42:13;-10897.63;;;-1.34;100.00
10145;BME280;5113;41.822;23.564;2023-01-04T00:45:19;-10906.59;;;-1.01;100.00
10145;BME280;5113;41.822;23.564;2023-01-04T00:48:26;-10895.81;;;-1.40;100.00
10145;BME280;5113;41.822;23.564;2023-01-04T00:51:33;-10900.44;;;-1.23;100.00
10145;BME280;5113;41.822;23.564;2023-01-04T00:54:41;-10911.91;;;-0.82;100.00
10145;BME280;5113;41.822;23.564;2023-01-04T00:57:47;-10911.34;;;-0.84;100.00
10145;BME280;5113;41.822;23.564;2023-01-04T01:00:54;-10913.88;;;-0.75;100.00
10145;BME280;5113;41.822;23.564;2023-01-04T01:04:01;-10914.16;;;-0.74;100.00
10145;BME280;5113;41.822;23.564;2023-01-04T01:07:09;-10914.56;;;-0.72;100.00
10145;BME280;5113;41.822;23.564;2023-01-04T01:10:16;-10903.78;;;-1.11;100.00
10145;BME280;5113;41.822;23.564;2023-01-04T01:13:23;-10914.84;;;-0.71;100.00
10145;BME280;5113;41.822;23.564;2023-01-04T01:16:29;-10901.13;;;-1.21;100.00
10145;BME280;5113;41.822;23.564;2023-01-04T01:19:55;-10897.63;;;-1.34;100.00
10145;BME280;5113;41.822;23.564;2023-01-04T01:23:01;-10895.13;;;-1.43;100.00
10145;BME280;5113;41.822;23.564;2023-01-04T01:26:10;-10909.41;;;-0.91;100.00
10145;BME280;5113;41.822;23.564;2023-01-04T01:29:16;-10910.22;;;-0.88;100.00
10145;BME280;5113;41.822;23.564;2023-01-04T01:32:23;-10906.31;;;-1.02;100.00
10145;BME280;5113;41.822;23.564;2023-01-04T01:35:29;-10921.16;;;-0.48;100.00
10145;BME280;5113;41.822;23.564;2023-01-04T01:38:38;-10919.47;;;-0.54;100.00
10145;BME280;5113;41.822;23.564;2023-01-04T01:41:46;-10916.53;;;-0.65;100.00
10145;BME280;5113;41.822;23.564;2023-01-04T01:45:00;-10912.47;;;-0.80;100.00
10145;BME280;5113;41.822;23.564;2023-01-04T01:48:11;-10910.78;;;-0.86;100.00
10145;BME280;5113;41.822;23.564;2023-01-04T01:51:20;-10910.22;;;-0.88;100.00
10145;BME280;5113;41.822;23.564;2023-01-04T01:54:29;-10917.94;;;-0.60;100.00
10145;BME280;5113;41.822;23.564;2023-01-04T01:57:39;-10917.25;;;-0.62;100.00
10145;BME280;5113;41.822;23.564;2023-01-04T02:00:46;-10927.03;;;-0.27;100.00
10145;BME280;5113;41.822;23.564;2023-01-04T02:03:53;-10927.47;;;-0.25;100.00
10145;BME280;5113;41.822;23.564;2023-01-04T02:07:00;-10928.72;;;-0.21;100.00
10145;BME280;5113;41.822;23.564;2023-01-04T02:10:07;-10916.97;;;-0.63;100.00
10145;BME280;5113;41.822;23.564;2023-01-04T02:13:17;-10921.44;;;-0.47;100.00
10145;BME280;5113;41.822;23.564;2023-01-04T02:16:32;-10920.03;;;-0.52;100.00
10145;BME280;5113;41.822;23.564;2023-01-04T02:20:02;-10920.16;;;-0.52;100.00
10145;BME280;5113;41.822;23.564;2023-01-04T02:23:38;-10916.53;;;-0.65;100.00
10145;BME280;5113;41.822;23.564;2023-01-04T02:27:19;-10923.97;;;-0.38;100.00
10145;BME280;5113;41.822;23.564;2023-01-04T02:30:58;-10920.88;;;-0.49;100.00
10145;BME280;5113;41.822;23.564;2023-01-04T02:34:15;-10918.34;;;-0.58;100.00
10145;BME280;5113;41.822;23.564;2023-01-04T02:37:29;-10919.75;;;-0.53;100.00
10145;BME280;5113;41.822;23.564;2023-01-04T02:40:43;-10911.34;;;-0.84;100.00
10145;BME280;5113;41.822;23.564;2023-01-04T02:43:55;-10914.72;;;-0.72;100.00
10145;BME280;5113;41.822;23.564;2023-01-04T02:47:26;-10913.31;;;-0.77;100.00
10145;BME280;5113;41.822;23.564;2023-01-04T02:50:53;-10903.66;;;-1.12;100.00
10145;BME280;5113;41.822;23.564;2023-01-04T02:54:03;-10898.47;;;-1.30;100.00
10145;BME280;5113;41.822;23.564;2023-01-04T02:57:20;-10896.50;;;-1.38;100.00
10145;BME280;5113;41.822;23.564;2023-01-04T03:00:39;-10906.16;;;-1.03;100.00
10145;BME280;5113;41.822;23.564;2023-01-04T03:04:15;-10913.03;;;-0.78;100.00
10145;BME280;5113;41.822;23.564;2023-01-04T03:07:48;-10900.72;;;-1.22;100.00
10145;BME280;5113;41.822;23.564;2023-01-04T03:11:02;-10906.16;;;-1.03;100.00
10145;BME280;5113;41.822;23.564;2023-01-04T03:14:11;-10903.66;;;-1.12;100.00
10145;BME280;5113;41.822;23.564;2023-01-04T03:17:41;-10899.88;;;-1.25;100.00
10145;BME280;5113;41.822;23.564;2023-01-04T03:20:51;-10901.13;;;-1.21;100.00
10145;BME280;5113;41.822;23.564;2023-01-04T03:24:00;-10896.22;;;-1.39;100.00
10145;BME280;5113;41.822;23.564;2023-01-04T03:27:25;-10909.25;;;-0.91;100.00
10145;BME280;5113;41.822;23.564;2023-01-04T03:30:53;-10911.91;;;-0.82;100.00
10145;BME280;5113;41.822;23.564;2023-01-04T03:34:18;-10910.22;;;-0.88;100.00
10145;BME280;5113;41.822;23.564;2023-01-04T03:37:47;-10903.78;;;-1.11;100.00
10145;BME280;5113;41.822;23.564;2023-01-04T03:41:17;-10905.75;;;-1.04;100.00
10145;BME280;5113;41.822;23.564;2023-01-04T03:44:47;-10899.31;;;-1.27;100.00
10145;BME280;5113;41.822;23.564;2023-01-04T03:48:18;-10906.88;;;-1.00;100.00
10145;BME280;5113;41.822;23.564;2023-01-04T03:51:36;-10907.28;;;-0.98;100.00
10145;BME280;5113;41.822;23.564;2023-01-04T03:54:47;-10907.44;;;-0.98;100.00
10145;BME280;5113;41.822;23.564;2023-01-04T03:57:55;-10906.03;;;-1.03;100.00
10145;BME280;5113;41.822;23.564;2023-01-04T04:01:03;-10902.25;;;-1.17;100.00
10145;BME280;5113;41.822;23.564;2023-01-04T04:04:10;-10896.94;;;-1.36;100.00
10145;BME280;5113;41.822;23.564;2023-01-04T04:07:34;-10896.38;;;-1.38;100.00
10145;BME280;5113;41.822;23.564;2023-01-04T04:11:01;-10885.31;;;-1.78;100.00
10145;BME280;5113;41.822;23.564;2023-01-04T04:14:28;-10885.31;;;-1.78;100.00
10145;BME280;5113;41.822;23.564;2023-01-04T04:17:35;-10895.13;;;-1.43;100.00
10145;BME280;5113;41.822;23.564;2023-01-04T04:20:41;-10877.06;;;-2.08;100.00
10145;BME280;5113;41.822;23.564;2023-01-04T04:23:47;-10895.97;;;-1.40;100.00
10145;BME280;5113;41.822;23.564;2023-01-04T04:26:55;-10891.06;;;-1.57;100.00
10145;BME280;5113;41.822;23.564;2023-01-04T04:30:02;-10882.53;;;-1.88;100.00
10145;BME280;5113;41.822;23.564;2023-01-04T04:33:08;-10881.97;;;-1.90;100.00
10145;BME280;5113;41.822;23.564;2023-01-04T04:36:14;-10890.34;;;-1.60;100.00
10145;BME280;5113;41.822;23.564;2023-01-04T04:39:20;-10898.19;;;-1.31;100.00
10145;BME280;5113;41.822;23.564;2023-01-04T04:42:28;-10896.50;;;-1.38;100.00
10145;BME280;5113;41.822;23.564;2023-01-04T04:45:33;-10899.31;;;-1.27;100.00
10145;BME280;5113;41.822;23.564;2023-01-04T04:48:39;-10900.44;;;-1.23;100.00
10145;BME280;5113;41.822;23.564;2023-01-04T04:51:46;-10906.88;;;-1.00;100.00
10145;BME280;5113;41.822;23.564;2023-01-04T04:54:52;-10898.63;;;-1.30;100.00
10145;BME280;5113;41.822;23.564;2023-01-04T04:58:00;-10893.44;;;-1.49;100.00
10145;BME280;5113;41.822;23.564;2023-01-04T05:01:08;-10903.09;;;-1.14;100.00
10145;BME280;5113;41.822;23.564;2023-01-04T05:04:15;-10874.41;;;-2.18;100.00
10145;BME280;5113;41.822;23.564;2023-01-04T05:07:23;-10864.47;;;-2.54;100.00
10145;BME280;5113;41.822;23.564;2023-01-04T05:10:30;-10862.38;;;-2.61;100.00
10145;BME280;5113;41.822;23.564;2023-01-04T05:13:38;-10872.72;;;-2.24;100.00
10145;BME280;5113;41.822;23.564;2023-01-04T05:16:44;-10873.00;;;-2.23;100.00
10145;BME280;5113;41.822;23.564;2023-01-04T05:19:51;-10882.53;;;-1.88;100.00
10145;BME280;5113;41.822;23.564;2023-01-04T05:22:58;-10878.59;;;-2.03;100.00
10145;BME280;5113;41.822;23.564;2023-01-04T05:26:04;-10890.78;;;-1.58;100.00
10145;BME280;5113;41.822;23.564;2023-01-04T05:29:12;-10895.13;;;-1.43;100.00
10145;BME280;5113;41.822;23.564;2023-01-04T05:32:39;-10897.91;;;-1.33;100.00
10145;BME280;5113;41.822;23.564;2023-01-04T05:35:44;-10890.91;;;-1.58;100.00
10145;BME280;5113;41.822;23.564;2023-01-04T05:38:50;-10875.53;;;-2.14;100.00
10145;BME280;5113;41.822;23.564;2023-01-04T05:41:57;-10866.56;;;-2.46;100.00
10145;BME280;5113;41.822;23.564;2023-01-04T05:45:23;-10884.06;;;-1.83;100.00
10145;BME280;5113;41.822;23.564;2023-01-04T05:48:29;-10881.97;;;-1.90;100.00
10145;BME280;5113;41.822;23.564;2023-01-04T05:51:36;-10878.03;;;-2.05;100.00
10145;BME280;5113;41.822;23.564;2023-01-04T05:54:42;-10875.81;;;-2.13;100.00
10145;BME280;5113;41.822;23.564;2023-01-04T05:57:49;-10890.34;;;-1.60;100.00
10145;BME280;5113;41.822;23.564;2023-01-04T06:00:57;-10895.69;;;-1.41;100.00
10145;BME280;5113;41.822;23.564;2023-01-04T06:04:04;-10881.13;;;-1.93;100.00
10145;BME280;5113;41.822;23.564;2023-01-04T06:07:10;-10873.56;;;-2.21;100.00
10145;BME280;5113;41.822;23.564;2023-01-04T06:10:16;-10869.09;;;-2.37;100.00
10145;BME280;5113;41.822;23.564;2023-01-04T06:13:23;-10883.78;;;-1.84;100.00
10145;BME280;5113;41.822;23.564;2023-01-04T06:16:30;-10875.09;;;-2.15;100.00
10145;BME280;5113;41.822;23.564;2023-01-04T06:19:37;-10884.75;;;-1.80;100.00
10145;BME280;5113;41.822;23.564;2023-01-04T06:22:43;-10876.91;;;-2.09;100.00
10145;BME280;5113;41.822;23.564;2023-01-04T06:25:49;-10879.72;;;-1.98;100.00
10145;BME280;5113;41.822;23.564;2023-01-04T06:28:56;-10887.28;;;-1.71;100.00
10145;BME280;5113;41.822;23.564;2023-01-04T06:32:04;-10878.59;;;-2.03;100.00
10145;BME280;5113;41.822;23.564;2023-01-04T06:35:10;-10889.78;;;-1.62;100.00
10145;BME280;5113;41.822;23.564;2023-01-04T06:38:17;-10894.84;;;-1.44;100.00
10145;BME280;5113;41.822;23.564;2023-01-04T06:41:23;-10898.19;;;-1.31;100.00
10145;BME280;5113;41.822;23.564;2023-01-04T06:44:30;-10909.25;;;-0.91;100.00
10145;BME280;5113;41.822;23.564;2023-01-04T06:47:38;-10895.13;;;-1.43;100.00
10145;BME280;5113;41.822;23.564;2023-01-04T06:50:45;-10892.59;;;-1.52;100.00
10145;BME280;5113;41.822;23.564;2023-01-04T06:53:51;-10893.28;;;-1.49;100.00
10145;BME280;5113;41.822;23.564;2023-01-04T06:56:57;-10910.50;;;-0.87;100.00
10145;BME280;5113;41.822;23.564;2023-01-04T07:00:06;-10923.81;;;-0.39;100.00
10145;BME280;5113;41.822;23.564;2023-01-04T07:03:14;-10925.34;;;-0.33;100.00
10145;BME280;5113;41.822;23.564;2023-01-04T07:06:21;-10924.50;;;-0.36;100.00
10145;BME280;5113;41.822;23.564;2023-01-04T07:09:27;-10925.91;;;-0.31;100.00
10145;BME280;5113;41.822;23.564;2023-01-04T07:12:34;-10914.56;;;-0.72;100.00
10145;BME280;5113;41.822;23.564;2023-01-04T07:15:41;-10922.84;;;-0.42;100.00
10145;BME280;5113;41.822;23.564;2023-01-04T07:18:49;-10939.34;;;0.18;100.00
10145;BME280;5113;41.822;23.564;2023-01-04T07:21:56;-10942.44;;;0.29;100.00
10145;BME280;5113;41.822;23.564;2023-01-04T07:25:03;-10937.97;;;0.13;100.00
10145;BME280;5113;41.822;23.564;2023-01-04T07:28:09;-10935.44;;;0.04;100.00
10145;BME280;5113;41.822;23.564;2023-01-04T07:31:16;-10949.16;;;0.53;100.00
10145;BME280;5113;41.822;23.564;2023-01-04T07:34:24;-10963.19;;;1.04;100.00
10145;BME280;5113;41.822;23.564;2023-01-04T07:37:31;-10974.38;;;1.45;100.00
10145;BME280;5113;41.822;23.564;2023-01-04T07:40:37;-10980.13;;;1.65;100.00
10145;BME280;5113;41.822;23.564;2023-01-04T07:44:00;-10975.78;;;1.50;100.00
10145;BME280;5113;41.822;23.564;2023-01-04T07:47:07;-10985.59;;;1.85;100.00
10145;BME280;5113;41.822;23.564;2023-01-04T07:50:14;-10987.00;;;1.90;100.00
10145;BME280;5113;41.822;23.564;2023-01-04T07:53:21;-10983.50;;;1.78;100.00
10145;BME280;5113;41.822;23.564;2023-01-04T07:56:27;-10989.81;;;2.01;100.00
10145;BME280;5113;41.822;23.564;2023-01-04T07:59:33;-10991.50;;;2.07;100.00
10145;BME280;5113;41.822;23.564;2023-01-04T08:02:40;-11008.31;;;2.68;100.00
10145;BME280;5113;41.822;23.564;2023-01-04T08:05:48;-11012.53;;;2.83;100.00
10145;BME280;5113;41.822;23.564;2023-01-04T08:08:54;-11015.75;;;2.94;100.00
10145;BME280;5113;41.822;23.564;2023-01-04T08:12:01;-11019.25;;;3.07;100.00
10145;BME280;5113;41.822;23.564;2023-01-04T08:15:08;-11029.06;;;3.43;100.00
10145;BME280;5113;41.822;23.564;2023-01-04T08:18:15;-11027.94;;;3.39;100.00
10145;BME280;5113;41.822;23.564;2023-01-04T08:21:27;-11031.31;;;3.51;100.00
10145;BME280;5113;41.822;23.564;2023-01-04T08:24:34;-11040.16;;;3.83;100.00
10145;BME280;5113;41.822;23.564;2023-01-04T08:27:40;-11037.78;;;3.74;100.00
10145;BME280;5113;41.822;23.564;2023-01-04T08:30:46;-11047.88;;;4.11;100.00
10145;BME280;5113;41.822;23.564;2023-01-04T08:33:53;-11059.25;;;4.52;100.00
10145;BME280;5113;41.822;23.564;2023-01-04T08:37:01;-11058.25;;;4.48;100.00
10145;BME280;5113;41.822;23.564;2023-01-04T08:40:09;-11064.84;;;4.72;100.00
10145;BME280;5113;41.822;23.564;2023-01-04T08:43:15;-11067.09;;;4.80;100.00
10145;BME280;5113;41.822;23.564;2023-01-04T08:46:21;-11065.84;;;4.76;100.00
10145;BME280;5113;41.822;23.564;2023-01-04T08:49:28;-11074.69;;;5.08;100.00
10145;BME280;5113;41.822;23.564;2023-01-04T08:52:36;-11079.31;;;5.24;100.00
10145;BME280;5113;41.822;23.564;2023-01-04T08:55:48;-11087.88;;;5.55;100.00
10145;BME280;5113;41.822;23.564;2023-01-04T08:58:54;-11086.75;;;5.51;100.00
10145;BME280;5113;41.822;23.564;2023-01-04T09:02:00;-11096.84;;;5.88;100.00
10145;BME280;5113;41.822;23.564;2023-01-04T09:05:10;-11097.84;;;5.91;100.00
10145;BME280;5113;41.822;23.564;2023-01-04T09:08:29;-11101.50;;;6.05;100.00
10145;BME280;5113;41.822;23.564;2023-01-04T09:11:37;-11111.88;;;6.42;100.00
10145;BME280;5113;41.822;23.564;2023-01-04T09:14:44;-11110.75;;;6.38;100.00
10145;BME280;5113;41.822;23.564;2023-01-04T09:17:50;-11122.56;;;6.81;100.00
10145;BME280;5113;41.822;23.564;2023-01-04T09:21:18;-11131.25;;;7.12;100.00
10145;BME280;5113;41.822;23.564;2023-01-04T09:24:26;-11123.41;;;6.84;100.00
10145;BME280;5113;41.822;23.564;2023-01-04T09:27:33;-11133.38;;;7.20;100.00
10145;BME280;5113;41.822;23.564;2023-01-04T09:30:39;-11138.44;;;7.38;100.00
10145;BME280;5113;41.822;23.564;2023-01-04T09:33:46;-11132.38;;;7.16;100.00
10145;BME280;5113;41.822;23.564;2023-01-04T09:37:12;-11140.25;;;7.45;100.00
10145;BME280;5113;41.822;23.564;2023-01-04T09:40:27;-11148.41;;;7.74;100.00
10145;BME280;5113;41.822;23.564;2023-01-04T09:43:43;-11148.69;;;7.75;100.00
10145;BME280;5113;41.822;23.564;2023-01-04T09:46:52;-11156.97;;;8.05;100.00
10145;BME280;5113;41.822;23.564;2023-01-04T09:50:05;-11170.91;;;8.55;100.00
10145;BME280;5113;41.822;23.564;2023-01-04T09:53:20;-11174.97;;;8.70;100.00
10145;BME280;5113;41.822;23.564;2023-01-04T09:56:32;-11179.47;;;8.86;100.00
10145;BME280;5113;41.822;23.564;2023-01-04T09:59:39;-11185.66;;;9.09;100.00
10145;BME280;5113;41.822;23.564;2023-01-04T10:02:46;-11191.28;;;9.29;100.00
10145;BME280;5113;41.822;23.564;2023-01-04T10:05:55;-11193.81;;;9.38;100.00
10145;BME280;5113;41.822;23.564;2023-01-04T10:09:03;-11185.50;;;9.08;100.00
10145;BME280;5113;41.822;23.564;2023-01-04T10:12:26;-11192.25;;;9.33;100.00
10145;BME280;5113;41.822;23.564;2023-01-04T10:15:40;-11206.59;;;9.84;100.00
10145;BME280;5113;41.822;23.564;2023-01-04T10:18:54;-11211.81;;;10.03;100.00
10145;BME280;5113;41.822;23.564;2023-01-04T10:22:27;-11214.06;;;10.11;98.23
10145;BME280;5113;41.822;23.564;2023-01-04T10:25:38;-11213.50;;;10.09;99.74
10145;BME280;5113;41.822;23.564;2023-01-04T10:29:03;-11219.41;;;10.31;99.14
10145;BME280;5113;41.822;23.564;2023-01-04T10:32:16;-11213.06;;;10.08;97.79
10145;BME280;5113;41.822;23.564;2023-01-04T10:35:25;-11222.06;;;10.40;97.05
10145;BME280;5113;41.822;23.564;2023-01-04T10:38:34;-11218.97;;;10.29;96.93
10145;BME280;5113;41.822;23.564;2023-01-04T10:41:49;-11230.78;;;10.72;94.75
10145;BME280;5113;41.822;23.564;2023-01-04T10:45:06;-11224.03;;;10.47;96.37
10145;BME280;5113;41.822;23.564;2023-01-04T10:48:23;-11233.31;;;10.81;95.82
10145;BME280;5113;41.822;23.564;2023-01-04T10:51:36;-11242.31;;;11.13;92.30
10145;BME280;5113;41.822;23.564;2023-01-04T10:54:48;-11229.94;;;10.69;92.98
10145;BME280;5113;41.822;23.564;2023-01-04T10:58:00;-11245.56;;;11.25;88.22
10145;BME280;5113;41.822;23.564;2023-01-04T11:01:13;-11257.25;;;11.67;88.16
10145;BME280;5113;41.822;23.564;2023-01-04T11:04:26;-11261.31;;;11.82;85.03
10145;BME280;5113;41.822;23.564;2023-01-04T11:07:40;-11247.97;;;11.34;81.01
10145;BME280;5113;41.822;23.564;2023-01-04T11:10:50;-11245.44;;;11.24;78.62
10145;BME280;5113;41.822;23.564;2023-01-04T11:13:59;-11255.00;;;11.59;77.90
10145;BME280;5113;41.822;23.564;2023-01-04T11:17:08;-11254.72;;;11.58;76.80
10145;BME280;5113;41.822;23.564;2023-01-04T11:20:15;-11255.13;;;11.59;75.48
10145;BME280;5113;41.822;23.564;2023-01-04T11:23:22;-11258.66;;;11.72;73.82
10145;BME280;5113;41.822;23.564;2023-01-04T11:26:34;-11259.22;;;11.74;73.30
10145;BME280;5113;41.822;23.564;2023-01-04T11:29:48;-11261.75;;;11.83;73.33
10145;BME280;5113;41.822;23.564;2023-01-04T11:33:00;-11272.59;;;12.22;72.78
10145;BME280;5113;41.822;23.564;2023-01-04T11:36:07;-11269.06;;;12.10;71.87
10145;BME280;5113;41.822;23.564;2023-01-04T11:39:19;-11262.72;;;11.87;72.64
10145;BME280;5113;41.822;23.564;2023-01-04T11:42:25;-11270.63;;;12.15;71.42
10145;BME280;5113;41.822;23.564;2023-01-04T11:45:32;-11272.44;;;12.22;71.05
10145;BME280;5113;41.822;23.564;2023-01-04T11:48:42;-11271.88;;;12.20;71.60
10145;BME280;5113;41.822;23.564;2023-01-04T11:51:48;-11275.25;;;12.32;69.99
10145;BME280;5113;41.822;23.564;2023-01-04T11:54:55;-11271.03;;;12.17;70.71
10145;BME280;5113;41.822;23.564;2023-01-04T11:58:06;-11273.72;;;12.27;71.27
10145;BME280;5113;41.822;23.564;2023-01-04T12:01:20;-11266.13;;;11.99;71.49
10145;BME280;5113;41.822;23.564;2023-01-04T12:04:29;-11270.34;;;12.14;70.31
10145;BME280;5113;41.822;23.564;2023-01-04T12:07:39;-11267.25;;;12.03;73.15
10145;BME280;5113;41.822;23.564;2023-01-04T12:10:48;-11266.97;;;12.02;73.10
10145;BME280;5113;41.822;23.564;2023-01-04T12:13:57;-11257.38;;;11.68;74.39
10145;BME280;5113;41.822;23.564;2023-01-04T12:17:10;-11264.44;;;11.93;74.15
10145;BME280;5113;41.822;23.564;2023-01-04T12:20:20;-11267.09;;;12.03;75.92
10145;BME280;5113;41.822;23.564;2023-01-04T12:23:30;-11261.75;;;11.83;75.05
10145;BME280;5113;41.822;23.564;2023-01-04T12:26:40;-11258.94;;;11.73;76.43
10145;BME280;5113;41.822;23.564;2023-01-04T12:29:56;-11259.22;;;11.74;75.75
10145;BME280;5113;41.822;23.564;2023-01-04T12:33:37;-11257.09;;;11.67;76.85
10145;BME280;5113;41.822;23.564;2023-01-04T12:36:56;-11273.16;;;12.24;74.90
10145;BME280;5113;41.822;23.564;2023-01-04T12:43:44;-11267.81;;;12.05;72.91
10145;BME280;5113;41.822;23.564;2023-01-04T12:46:53;-11254.44;;;11.57;73.60
10145;BME280;5113;41.822;23.564;2023-01-04T12:50:19;-11250.78;;;11.44;74.03
10145;BME280;5113;41.822;23.564;2023-01-04T12:53:50;-11261.03;;;11.81;73.82
10145;BME280;5113;41.822;23.564;2023-01-04T12:57:21;-11270.63;;;12.15;71.27
10145;BME280;5113;41.822;23.564;2023-01-04T13:04:27;-11280.03;;;12.49;70.32
10145;BME280;5113;41.822;23.564;2023-01-04T13:07:40;-11269.91;;;12.13;70.98
10145;BME280;5113;41.822;23.564;2023-01-04T13:10:50;-11262.44;;;11.86;72.02
10145;BME280;5113;41.822;23.564;2023-01-04T13:14:01;-11254.16;;;11.56;72.91
10145;BME280;5113;41.822;23.564;2023-01-04T13:17:19;-11276.38;;;12.36;71.20
10145;BME280;5113;41.822;23.564;2023-01-04T13:20:27;-11264.56;;;11.94;72.13
10145;BME280;5113;41.822;23.564;2023-01-04T13:23:35;-11263.88;;;11.91;72.05
10145;BME280;5113;41.822;23.564;2023-01-04T13:26:44;-11248.81;;;11.37;74.56
10145;BME280;5113;41.822;23.564;2023-01-04T13:29:52;-11243.59;;;11.18;75.64
10145;BME280;5113;41.822;23.564;2023-01-04T13:32:58;-11253.16;;;11.52;75.16
10145;BME280;5113;41.822;23.564;2023-01-04T13:36:31;-11240.06;;;11.05;77.30
10145;BME280;5113;41.822;23.564;2023-01-04T13:39:39;-11247.41;;;11.32;76.11
10145;BME280;5113;41.822;23.564;2023-01-04T13:42:49;-11231.50;;;10.74;79.62
10145;BME280;5113;41.822;23.564;2023-01-04T13:46:03;-11223.75;;;10.46;80.98
10145;BME280;5113;41.822;23.564;2023-01-04T13:49:15;-11214.06;;;10.11;83.89
10145;BME280;5113;41.822;23.564;2023-01-04T13:52:22;-11200.56;;;9.63;89.30
10145;BME280;5113;41.822;23.564;2023-01-04T13:55:50;-11197.47;;;9.51;90.58
10145;BME280;5113;41.822;23.564;2023-01-04T13:58:59;-11194.22;;;9.40;91.98
10145;BME280;5113;41.822;23.564;2023-01-04T14:02:15;-11191.97;;;9.32;93.93
10145;BME280;5113;41.822;23.564;2023-01-04T14:05:22;-11194.50;;;9.41;93.22
10145;BME280;5113;41.822;23.564;2023-01-04T14:08:32;-11187.19;;;9.14;94.98
10145;BME280;5113;41.822;23.564;2023-01-04T14:11:42;-11186.06;;;9.10;95.91
10145;BME280;5113;41.822;23.564;2023-01-04T14:15:19;-11180.16;;;8.89;97.48
10145;BME280;5113;41.822;23.564;2023-01-04T14:18:28;-11177.91;;;8.81;98.40
10145;BME280;5113;41.822;23.564;2023-01-04T14:21:35;-11179.59;;;8.87;97.32
10145;BME280;5113;41.822;23.564;2023-01-04T14:24:42;-11178.19;;;8.82;97.29
10145;BME280;5113;41.822;23.564;2023-01-04T14:28:38;-11174.13;;;8.67;98.18
10145;BME280;5113;41.822;23.564;2023-01-04T14:31:55;-11179.59;;;8.87;95.53
10145;BME280;5113;41.822;23.564;2023-01-04T14:35:09;-11176.50;;;8.76;95.64
10145;BME280;5113;41.822;23.564;2023-01-04T14:38:18;-11176.50;;;8.76;95.56
10145;BME280;5113;41.822;23.564;2023-01-04T14:41:27;-11171.19;;;8.56;96.81
10145;BME280;5113;41.822;23.564;2023-01-04T14:44:36;-11172.44;;;8.61;95.91
10145;BME280;5113;41.822;23.564;2023-01-04T14:47:46;-11167.09;;;8.42;97.40
10145;BME280;5113;41.822;23.564;2023-01-04T14:50:53;-11165.28;;;8.35;97.96
10145;BME280;5113;41.822;23.564;2023-01-04T14:53:59;-11163.59;;;8.29;97.83
10145;BME280;5113;41.822;23.564;2023-01-04T14:57:05;-11161.47;;;8.21;97.88
10145;BME280;5113;41.822;23.564;2023-01-04T15:00:13;-11156.69;;;8.04;99.49
10145;BME280;5113;41.822;23.564;2023-01-04T15:03:25;-11158.53;;;8.11;99.37
10145;BME280;5113;41.822;23.564;2023-01-04T15:06:32;-11156.28;;;8.03;100.00
10145;BME280;5113;41.822;23.564;2023-01-04T15:09:38;-11157.13;;;8.06;99.92
10145;BME280;5113;41.822;23.564;2023-01-04T15:12:44;-11151.78;;;7.86;100.00
10145;BME280;5113;41.822;23.564;2023-01-04T15:15:51;-11143.62;;;7.57;100.00
10145;BME280;5113;41.822;23.564;2023-01-04T15:18:59;-11145.03;;;7.62;100.00
10145;BME280;5113;41.822;23.564;2023-01-04T15:22:05;-11141.38;;;7.49;100.00
10145;BME280;5113;41.822;23.564;2023-01-04T15:25:11;-11136.59;;;7.32;100.00
10145;BME280;5113;41.822;23.564;2023-01-04T15:28:17;-11139.56;;;7.42;100.00
10145;BME280;5113;41.822;23.564;2023-01-04T15:31:25;-11133.50;;;7.20;100.00
10145;BME280;5113;41.822;23.564;2023-01-04T15:34:42;-11134.34;;;7.23;100.00
10145;BME280;5113;41.822;23.564;2023-01-04T15:37:51;-11125.50;;;6.91;100.00
10145;BME280;5113;41.822;23.564;2023-01-04T15:41:05;-11117.66;;;6.63;100.00
10145;BME280;5113;41.822;23.564;2023-01-04T15:44:11;-11110.47;;;6.37;100.00
10145;BME280;5113;41.822;23.564;2023-01-04T15:47:17;-11102.06;;;6.07;100.00
10145;BME280;5113;41.822;23.564;2023-01-04T15:50:24;-11097.84;;;5.91;100.00
10145;BME280;5113;41.822;23.564;2023-01-04T15:53:31;-11097.97;;;5.92;100.00
10145;BME280;5113;41.822;23.564;2023-01-04T15:56:37;-11097.28;;;5.89;100.00
10145;BME280;5113;41.822;23.564;2023-01-04T15:59:45;-11089.41;;;5.61;100.00
10145;BME280;5113;41.822;23.564;2023-01-04T16:02:52;-11107.13;;;6.25;100.00
10145;BME280;5113;41.822;23.564;2023-01-04T16:06:04;-11098.13;;;5.92;100.00
10145;BME280;5113;41.822;23.564;2023-01-04T16:09:11;-11087.59;;;5.54;100.00
10145;BME280;5113;41.822;23.564;2023-01-04T16:12:17;-11083.50;;;5.40;100.00
10145;BME280;5113;41.822;23.564;2023-01-04T16:15:41;-11089.69;;;5.62;100.00
10145;BME280;5113;41.822;23.564;2023-01-04T16:18:49;-11088.44;;;5.57;100.00
10145;BME280;5113;41.822;23.564;2023-01-04T16:21:57;-11084.63;;;5.44;100.00
10145;BME280;5113;41.822;23.564;2023-01-04T16:25:05;-11079.16;;;5.24;100.00
10145;BME280;5113;41.822;23.564;2023-01-04T16:28:15;-11073.41;;;5.03;100.00
10145;BME280;5113;41.822;23.564;2023-01-04T16:31:22;-11068.91;;;4.87;100.00
10145;BME280;5113;41.822;23.564;2023-01-04T16:34:28;-11070.03;;;4.91;100.00
10145;BME280;5113;41.822;23.564;2023-01-04T16:37:36;-11065.56;;;4.75;100.00
10145;BME280;5113;41.822;23.564;2023-01-04T16:40:42;-11067.37;;;4.81;100.00